CheckWX is a tool to help pilots better visualize weather data.  It is not intended as a substitute for an official pre-flight weather briefing.

13:59:56 UTC

KLAN TAF
Capital Region International Airport
Lansing, Michigan, USA
KLAN 021740Z 0218/0318 04005KT P6SM SKC

Jul-2@
18:00 UTC

Jul-2 @ 18:00 UTC

Jul-3@
18:00 UTC

Jul-3 @ 18:00 UTC

TAF KLAN 021740Z 0218/0318 04005KT P6SM SKC
Wind
  • 040° at 5 KTS
Cloud Levels
  • Clear skies